ADDS TAF Data INFO
IDs: Format: Raw Decoded Include METARs

Data at: 1936 UTC 16 Jan 2018

TAF for:KCYS (Cheyenne Rgnl, WY, US) issued at 1720 UTC 16 Jan 2018
Text:KCYS 161720Z 1618/1718 19006KT P6SM SKC
Forecast period:1800 UTC 16 January 2018 to 0500 UTC 17 January 2018
Forecast type:FROM: standard forecast or significant change
Winds:from the S (190 degrees) at 7 MPH (6 knots; 3.1 m/s)
Visibility:6 or more sm (10+ km)
Ceiling:at least 12,000 feet AGL
Clouds:clear skies
Text:FM170500 27009KT P6SM SKC
Forecast period:0500 to 1800 UTC 17 January 2018
Forecast type:FROM: standard forecast or significant change
Winds:from the W (270 degrees) at 10 MPH (9 knots; 4.6 m/s)
Visibility:6 or more sm (10+ km)
Ceiling:at least 12,000 feet AGL
Clouds:clear skies